Latest Weather Observations for Ulladulla

IDN60901

Issued at 7:31 pm EST Tuesday 4 August 2015 (issued every 10 minutes, with the page automatically refreshed every 10 minutes)

About weather observations | Map of Canberra area stations | Latest observations for Canberra area | Other Formats
Station Details ID: 069138 Name: ULLADULLA AWS Lat: -35.36 Lon: 150.48 Height: 35.7 m
Data from the previous 72 hours. | See also: Recent months at Ulladulla
Date/Time
EST
Tmp

°C
App
Tmp
°C
Dew
Point
°C
Rel
Hum
%
Delta-T

°C
Wind Press
QNH
hPa
Press
MSL
hPa
Rain
since
9 am
mm
Dir
 
Spd
km/h
Gust
km/h
Spd
kts
Gust
kts
04/07:30pm 7.2 4.3 -1.2 55 3.2 WNW 4 6 2 3 1017.4 1017.4 0.0
04/07:00pm 8.2 4.9 -1.3 51 3.6 WNW 6 17 3 9 1017.5 1017.5 0.0
04/06:30pm 8.8 5.3 -1.6 48 4.0 WNW 7 15 4 8 1017.3 1017.3 0.0
04/06:00pm 9.3 5.5 -0.8 49 3.9 WNW 9 15 5 8 1017.3 1017.3 0.0
04/05:30pm 9.9 6.2 0.0 50 4.0 WNW 9 17 5 9 1017.1 1017.1 0.0
04/05:00pm 11.2 7.2 0.3 47 4.5 NNW 11 20 6 11 1016.9 1016.9 0.0
04/04:30pm 11.3 7.1 3.6 59 3.4 NE 15 24 8 13 1017.0 1017.0 0.0
04/04:00pm 11.5 8.4 3.5 58 3.5 NE 9 17 5 9 1017.3 1017.3 0.0
04/03:30pm 11.4 7.7 2.4 54 3.9 NE 11 19 6 10 1017.5 1017.5 0.0
04/03:00pm 11.6 8.2 2.1 52 4.1 NE 9 15 5 8 1018.0 1018.0 0.0
04/02:30pm 11.7 8.6 1.6 50 4.3 ENE 7 11 4 6 1018.1 1018.1 0.0
04/02:00pm 11.7 8.4 0.2 45 4.7 NE 7 13 4 7 1018.6 1018.6 0.0
04/01:30pm 11.7 8.2 -1.1 41 5.1 ENE 7 9 4 5 1019.1 1019.1 0.0
04/01:00pm 11.8 8.4 -0.4 43 4.9 NE 7 13 4 7 1019.8 1019.8 0.0
04/12:30pm 11.3 7.7 -2.1 39 5.2 ENE 7 11 4 6 1020.5 1020.5 0.0
04/12:00pm 11.3 7.6 -2.8 37 5.4 ENE 7 11 4 6 1021.1 1021.1 0.0
04/11:30am 11.4 7.8 -3.5 35 5.6 ENE 6 9 3 5 1021.7 1021.7 0.0
04/11:00am 11.2 7.5 -4.1 34 5.6 ESE 6 9 3 5 1022.3 1022.3 0.0
04/10:30am 10.8 7.5 -4.0 35 5.5 SSW 4 6 2 3 1022.8 1022.8 0.0
04/10:00am 10.8 7.5 -4.4 34 5.5 SW 4 11 2 6 1022.7 1022.7 0.0
04/09:30am 10.5 7.3 -3.2 38 5.1 WSW 4 6 2 3 1022.8 1022.8 0.0
04/09:00am 10.1 7.2 -1.0 46 4.3 WSW 4 7 2 4 1022.7 1022.7 1.0
04/08:30am 8.6 6.0 0.8 58 3.2 WSW 4 7 2 4 1022.5 1022.5 1.0
04/08:00am 7.1 3.9 0.8 64 2.5 WSW 7 11 4 6 1022.5 1022.5 1.0
04/07:30am 4.8 1.8 1.1 77 1.4 W 6 7 3 4 1022.5 1022.5 1.0
04/07:00am 3.9 0.3 0.9 81 1.1 WSW 9 13 5 7 1022.3 1022.3 1.0
04/06:30am 3.9 0.9 0.9 81 1.2 WSW 6 9 3 5 1022.2 1022.2 1.0
04/06:00am 3.5 0.3 0.7 82 1.1 WSW 7 9 4 5 1021.9 1021.9 1.0
04/05:30am 3.8 0.3 1.2 83 1.0 WSW 9 11 5 6 1021.7 1021.7 1.0
04/05:00am 4.1 1.0 1.5 83 1.0 WSW 7 9 4 5 1021.6 1021.6 1.0
04/04:30am 4.3 1.2 1.5 82 1.1 WSW 7 11 4 6 1021.5 1021.5 1.0
04/04:00am 4.8 1.8 1.7 80 1.2 WSW 7 11 4 6 1021.3 1021.3 1.0
04/03:30am 5.4 1.9 1.5 76 1.5 WSW 9 13 5 7 1021.3 1021.3 1.0
04/03:00am 6.1 2.2 1.1 70 2.0 SW 11 17 6 9 1021.4 1021.4 1.0
04/02:30am 6.6 2.2 0.3 64 2.5 SW 13 17 7 9 1021.4 1021.4 1.0
04/02:00am 7.2 2.8 0.6 63 2.6 SW 13 20 7 11 1021.4 1021.4 1.0
04/01:30am 7.5 2.9 1.8 67 2.3 SSW 15 22 8 12 1021.7 1021.7 1.0
04/01:00am 6.8 3.4 1.7 70 2.1 SW 9 17 5 9 1021.8 1021.8 1.0
04/12:30am 7.3 3.9 1.6 67 2.3 SW 9 11 5 6 1021.8 1021.8 1.0
04/12:00am 8.1 4.7 1.9 65 2.5 SW 9 13 5 7 1021.7 1021.7 1.0
 
Date/Time
EST
Tmp

°C
App
Tmp
°C
Dew
Point
°C
Rel
Hum
%
Delta-T

°C
Wind Press
QNH
hPa
Press
MSL
hPa
Rain
since
9 am
mm
Dir
 
Spd
km/h
Gust
km/h
Spd
kts
Gust
kts
03/11:30pm 8.4 5.1 2.2 65 2.6 SW 9 15 5 8 1021.5 1021.5 1.0
03/11:00pm 8.6 5.3 4.6 76 1.8 SW 11 17 6 9 1021.4 1021.4 1.0
03/10:30pm 8.4 5.5 4.4 76 1.8 SW 9 15 5 8 1021.2 1021.2 1.0
03/10:00pm 9.9 6.6 4.7 70 2.3 SSW 11 19 6 10 1021.0 1021.0 0.8
03/09:30pm 8.7 6.6 5.6 81 1.4 WSW 6 19 3 10 1020.9 1020.9 0.8
03/09:00pm 8.9 6.8 6.0 82 1.3 W 6 9 3 5 1020.5 1020.5 0.8
03/08:30pm 9.2 7.3 6.5 83 1.3 W 6 7 3 4 1020.3 1020.3 0.8
03/08:00pm 9.1 7.0 5.8 80 1.5 W 6 9 3 5 1019.9 1019.9 0.8
03/07:30pm 9.2 7.4 5.6 78 1.6 WSW 4 6 2 3 1019.5 1019.5 0.8
03/07:00pm 10.2 7.1 5.4 72 2.2 SSW 11 17 6 9 1018.9 1018.9 0.8
03/06:30pm 10.4 5.8 5.8 73 2.1 SSW 19 30 10 16 1018.7 1018.7 0.8
03/06:00pm 10.3 4.5 6.1 75 1.9 S 26 33 14 18 1017.8 1017.8 0.8
03/05:30pm 11.2 4.1 5.7 69 2.5 S 32 41 17 22 1017.1 1017.1 0.4
03/05:00pm 10.6 6.2 7.3 80 1.6 S 20 32 11 17 1016.5 1016.5 0.4
03/04:30pm 11.1 5.5 7.2 77 1.9 S 26 35 14 19 1015.8 1015.8 0.0
03/04:00pm 12.3 5.5 7.8 74 2.2 SSE 33 48 18 26 1014.5 1014.5 0.0
03/03:39pm 12.9 7.2 6.9 67 2.9 S 26 52 14 28 1013.4 1013.4 0.0
03/03:30pm 14.7 10.3 4.7 51 4.7 WSW 17 32 9 17 1013.0 1013.0 0.0
03/03:00pm 16.0 10.8 3.4 43 5.8 NW 20 35 11 19 1012.2 1012.2 0.0
03/02:30pm 16.0 10.8 3.4 43 5.8 NW 20 32 11 17 1011.9 1011.9 0.0
03/02:00pm 16.6 11.9 3.3 41 6.1 WNW 17 32 9 17 1011.7 1011.7 0.0
03/01:30pm 16.7 12.4 3.4 41 6.1 WNW 15 28 8 15 1011.4 1011.4 0.0
03/01:00pm 16.5 11.4 2.9 40 6.2 NW 19 35 10 19 1011.1 1011.1 0.0
03/12:30pm 17.1 13.6 3.4 40 6.3 WSW 11 20 6 11 1011.4 1011.4 0.0
03/12:00pm 16.3 11.6 3.4 42 5.9 WNW 17 26 9 14 1011.3 1011.3 0.0
03/11:30am 15.4 9.6 2.2 41 5.9 NW 22 35 12 19 1011.4 1011.4 0.0
03/11:00am 15.4 10.7 3.2 44 5.5 WNW 17 30 9 16 1011.7 1011.7 0.0
03/10:30am 15.0 10.7 3.2 45 5.3 NW 15 26 8 14 1012.2 1012.2 0.0
03/10:00am 14.8 10.1 3.3 46 5.2 WNW 17 32 9 17 1012.4 1012.4 0.0
03/09:30am 14.2 10.2 2.8 46 5.1 WNW 13 28 7 15 1012.2 1012.2 0.0
03/09:00am 13.7 9.3 2.6 47 4.9 WNW 15 26 8 14 1012.4 1012.4 0.8
03/08:30am 13.1 8.7 2.6 49 4.6 WNW 15 28 8 15 1012.3 1012.3 0.8
03/08:00am 12.6 9.3 2.2 49 4.5 W 9 20 5 11 1011.9 1011.9 0.8
03/07:30am 12.0 7.9 2.2 51 4.2 WNW 13 28 7 15 1011.4 1011.4 0.8
03/07:00am 11.5 7.8 2.3 53 4.0 WNW 11 32 6 17 1011.0 1011.0 0.8
03/06:30am 11.9 7.0 2.1 51 4.2 NW 17 32 9 17 1010.8 1010.8 0.8
03/06:00am 11.3 7.9 2.1 53 3.9 NW 9 35 5 19 1010.5 1010.5 0.8
03/05:30am 11.8 5.6 2.3 52 4.1 NW 24 43 13 23 1010.2 1010.2 0.8
03/05:02am 11.7 6.5 2.7 54 3.9 WNW 19 52 10 28 1010.4 1010.4 0.8
03/05:00am 11.5 7.1 2.5 54 3.9 WNW 15 52 8 28 1010.1 1010.1 0.8
03/04:30am 11.5 6.1 2.3 53 4.0 WNW 20 37 11 20 1010.6 1010.6 0.8
03/04:00am 10.8 7.1 2.1 55 3.7 NW 11 22 6 12 1010.7 1010.7 0.8
03/03:30am 10.5 7.1 2.1 56 3.6 WNW 9 17 5 9 1010.9 1010.9 0.8
03/03:00am 10.3 6.9 1.9 56 3.5 WNW 9 22 5 12 1011.4 1011.4 0.8
03/02:30am 10.5 6.3 1.9 55 3.6 WNW 13 26 7 14 1012.0 1012.0 0.8
03/02:00am 10.3 7.2 1.2 53 3.8 N 7 19 4 10 1012.4 1012.4 0.8
03/01:30am 9.6 6.0 0.8 54 3.6 NW 9 15 5 8 1012.7 1012.7 0.8
03/01:00am 10.0 5.0 1.1 54 3.7 NW 17 26 9 14 1013.1 1013.1 0.8
03/12:30am 10.2 5.2 1.1 53 3.8 W 17 35 9 19 1013.4 1013.4 0.8
03/12:00am 10.1 5.4 1.0 53 3.8 W 15 26 8 14 1013.5 1013.5 0.8
 
Date/Time
EST
Tmp

°C
App
Tmp
°C
Dew
Point
°C
Rel
Hum
%
Delta-T

°C
Wind Press
QNH
hPa
Press
MSL
hPa
Rain
since
9 am
mm
Dir
 
Spd
km/h
Gust
km/h
Spd
kts
Gust
kts
02/11:30pm 10.0 6.4 0.9 53 3.7 W 9 19 5 10 1013.3 1013.3 0.8
02/11:00pm 10.4 6.1 1.0 52 3.9 W 13 22 7 12 1013.3 1013.3 0.8
02/10:30pm 10.7 6.0 1.0 51 4.0 W 15 28 8 15 1013.4 1013.4 0.8
02/10:00pm 10.0 6.2 1.9 57 3.4 W 11 15 6 8 1013.3 1013.3 0.8
02/09:30pm 9.5 6.5 1.9 59 3.2 WSW 7 13 4 7 1013.4 1013.4 0.8
02/09:00pm 10.1 6.7 2.0 57 3.4 WSW 9 15 5 8 1012.5 1012.5 0.8
02/08:30pm 11.2 8.3 2.5 55 3.8 W 7 11 4 6 1012.5 1012.5 0.8
02/08:00pm 11.8 8.9 2.8 54 3.9 W 7 13 4 7 1012.0 1012.0 0.8
02/07:30pm 13.0 8.9 4.2 55 4.0 WSW 15 28 8 15 1012.0 1012.0 0.8
02/07:00pm 14.2 11.4 5.3 55 4.2 SW 9 17 5 9 1012.0 1012.0 0.8
02/06:30pm 14.1 12.5 6.2 59 3.8 W 4 7 2 4 1011.5 1011.5 0.8
02/06:00pm 15.4 12.1 6.4 55 4.4 NW 13 20 7 11 1010.2 1010.2 0.8
02/05:30pm 16.1 11.6 7.1 55 4.5 NW 20 35 11 19 1010.0 1010.0 0.8
02/05:00pm 16.6 13.1 7.3 54 4.7 WNW 15 32 8 17 1009.6 1009.6 0.8
02/04:30pm 17.4 13.6 7.5 52 5.0 W 17 30 9 16 1009.2 1009.2 0.8
02/04:03pm 18.1 12.1 7.2 49 5.5 NW 28 48 15 26 1008.7 1008.7 0.8
02/04:00pm 18.2 11.9 7.3 49 5.5 NW 30 48 16 26 1008.6 1008.6 0.8
02/03:41pm 18.6 12.6 7.1 47 5.8 NW 28 48 15 26 1007.6 1007.6 0.8
02/03:30pm 18.7 13.5 7.2 47 5.8 NW 24 46 13 25 1007.6 1007.6 0.8
02/03:00pm 19.5 13.8 6.9 44 6.4 WNW 26 52 14 28 1007.9 1007.9 0.8
02/02:45pm 20.3 14.2 6.6 41 6.9 NW 28 54 15 29 1008.5 1008.5 0.8
02/02:30pm 20.7 16.2 7.0 41 7.0 NW 20 33 11 18 1007.2 1007.2 0.8
02/02:00pm 21.3 17.3 8.2 43 6.9 WNW 19 32 10 17 1007.3 1007.3 0.8
02/01:30pm 21.2 16.3 8.5 44 6.7 NW 24 44 13 24 1007.4 1007.4 0.8
02/01:00pm 20.9 15.1 7.9 43 6.8 NW 28 50 15 27 1007.5 1007.5 0.8
02/12:37pm 20.6 14.8 7.9 44 6.6 NNW 28 52 15 28 1007.9 1007.9 0.8
02/12:30pm 20.5 16.1 9.1 48 6.0 NNW 22 50 12 27 1008.2 1008.2 0.8
02/12:00pm 19.3 15.7 10.6 57 4.7 NNW 20 37 11 20 1008.7 1008.7 0.8
02/11:30am 17.4 13.7 10.3 63 3.8 N 20 35 11 19 1009.5 1009.5 0.8
02/11:00am 16.6 11.5 10.5 67 3.2 N 28 44 15 24 1010.5 1010.5 0.8
02/10:42am 16.3 11.1 10.4 68 3.1 N 28 46 15 25 1010.3 1010.3 0.8
02/10:30am 16.1 10.5 10.0 67 3.2 N 30 43 16 23 1010.3 1010.3 0.8
02/10:00am 14.2 11.1 10.4 78 2.0 N 17 24 9 13 1012.2 1012.2 0.8
02/09:30am 14.8 12.7 9.6 71 2.7 NNW 11 22 6 12 1012.8 1012.8 0.0
02/09:00am 15.2 12.4 10.0 71 2.7 N 15 24 8 13 1013.1 1013.1 8.8
02/08:30am 15.0 12.0 9.4 69 2.9 NNW 15 26 8 14 1013.3 1013.3 8.8
02/08:00am 13.8 10.9 9.5 75 2.2 N 15 24 8 13 1013.5 1013.5 8.8
02/07:30am 13.3 11.6 9.7 79 1.8 N 9 15 5 8 1014.4 1014.4 8.8
02/07:00am 13.2 10.7 9.8 80 1.7 NNW 13 26 7 14 1014.5 1014.5 8.8
02/06:30am 12.7 10.7 10.1 84 1.3 NNW 11 19 6 10 1014.5 1014.5 8.6
02/06:00am 11.8 10.8 10.9 94 0.5 NW 7 13 4 7 1013.9 1013.9 8.6
02/05:30am 11.8 11.4 11.0 95 0.4 NNW 4 7 2 4 1014.0 1014.0 8.6
02/05:00am 12.3 11.6 11.5 95 0.4 NW 6 13 3 7 1014.7 1014.7 8.0
02/04:30am 12.6 12.1 12.0 96 0.3 N 6 9 3 5 1014.3 1014.3 8.0
02/04:00am 13.3 12.1 12.8 97 0.3 N 11 19 6 10 1015.3 1015.3 7.6
02/03:30am 12.9 12.4 12.0 94 0.5 NNE 6 9 3 5 1015.2 1015.2 7.6
02/03:00am 12.4 12.2 11.8 96 0.3 ESE 4 6 2 3 1015.1 1015.1 7.6
02/02:30am 12.6 12.9 12.1 97 0.3 ESE 2 9 1 5 1015.8 1015.8 7.4
02/02:00am 12.8 12.8 12.3 97 0.3 SE 4 6 2 3 1016.3 1016.3 5.6
02/01:30am 12.7 13.0 12.1 96 0.3 SE 2 6 1 3 1016.2 1016.2 4.0
02/01:00am 12.6 12.8 11.7 94 0.5 SE 2 6 1 3 1016.7 1016.7 2.8
02/12:30am 12.7 12.2 10.8 88 1.0 SE 4 7 2 4 1016.7 1016.7 0.2
02/12:00am 13.1 12.9 10.6 85 1.3 SE 2 6 1 3 1017.2 1017.2 0.0
 
Date/Time
EST
Tmp

°C
App
Tmp
°C
Dew
Point
°C
Rel
Hum
%
Delta-T

°C
Wind Press
QNH
hPa
Press
MSL
hPa
Rain
since
9 am
mm
Dir
 
Spd
km/h
Gust
km/h
Spd
kts
Gust
kts
01/11:30pm 13.5 13.5 11.0 85 1.3 SE 2 4 1 2 1016.9 1016.9 0.0
01/11:00pm 13.4 12.0 10.9 85 1.3 SE 9 15 5 8 1016.6 1016.6 0.0
01/10:30pm 13.4 11.2 10.8 84 1.4 S 13 19 7 10 1016.8 1016.8 0.0
01/10:00pm 13.7 11.2 11.0 84 1.4 S 15 20 8 11 1017.0 1017.0 0.0
01/09:30pm 13.8 10.5 11.5 86 1.2 S 20 24 11 13 1016.9 1016.9 0.0
01/09:00pm 13.8 11.0 11.5 86 1.2 S 17 24 9 13 1016.8 1016.8 0.0
01/08:30pm 14.1 11.0 11.6 85 1.3 SSW 19 28 10 15 1017.4 1017.4 0.0
01/08:00pm 14.5 11.3 12.0 85 1.4 SSW 20 32 11 17 1016.9 1016.9 0.0

Latest Capital City Observations: Canberra | Sydney | Melbourne | Brisbane | Adelaide | Perth | Hobart | Darwin

Other Formats:

Comma delimited format used in spreadsheet applications
http://www.bom.gov.au/fwo/IDN60903/IDN60903.94938.axf

JavaScript Object Notation format (JSON) in row-major order
http://www.bom.gov.au/fwo/IDN60903/IDN60903.94938.json